sensor_id;sensor_type;location;lat;lon;timestamp;temperature;humidity
24152;DHT22;12311;50.866;4.332;2023-07-13T00:00:34;16.60;99.90
24152;DHT22;12311;50.866;4.332;2023-07-13T00:03:01;16.60;99.90
24152;DHT22;12311;50.866;4.332;2023-07-13T00:05:27;16.60;99.90
24152;DHT22;12311;50.866;4.332;2023-07-13T00:07:53;16.50;99.90
24152;DHT22;12311;50.866;4.332;2023-07-13T00:10:20;16.50;99.90
24152;DHT22;12311;50.866;4.332;2023-07-13T00:12:46;16.40;99.90
24152;DHT22;12311;50.866;4.332;2023-07-13T00:15:19;16.50;99.90
24152;DHT22;12311;50.866;4.332;2023-07-13T00:17:53;16.40;99.90
24152;DHT22;12311;50.866;4.332;2023-07-13T00:20:20;16.40;99.90
24152;DHT22;12311;50.866;4.332;2023-07-13T00:22:48;16.40;99.90
24152;DHT22;12311;50.866;4.332;2023-07-13T00:25:14;16.40;99.90
24152;DHT22;12311;50.866;4.332;2023-07-13T00:27:41;16.40;99.90
24152;DHT22;12311;50.866;4.332;2023-07-13T00:30:07;16.30;99.90
24152;DHT22;12311;50.866;4.332;2023-07-13T00:32:34;16.30;99.90
24152;DHT22;12311;50.866;4.332;2023-07-13T00:35:00;16.30;99.90
24152;DHT22;12311;50.866;4.332;2023-07-13T00:37:26;16.20;99.90
24152;DHT22;12311;50.866;4.332;2023-07-13T00:39:52;16.20;99.90
24152;DHT22;12311;50.866;4.332;2023-07-13T00:42:18;16.20;99.90
24152;DHT22;12311;50.866;4.332;2023-07-13T00:47:38;16.30;99.90
24152;DHT22;12311;50.866;4.332;2023-07-13T00:50:10;16.20;99.90
24152;DHT22;12311;50.866;4.332;2023-07-13T00:52:41;16.20;99.90
24152;DHT22;12311;50.866;4.332;2023-07-13T00:55:08;16.10;99.90
24152;DHT22;12311;50.866;4.332;2023-07-13T00:57:35;16.10;99.90
24152;DHT22;12311;50.866;4.332;2023-07-13T01:00:04;16.20;99.90
24152;DHT22;12311;50.866;4.332;2023-07-13T01:02:44;16.10;99.90
24152;DHT22;12311;50.866;4.332;2023-07-13T01:05:13;16.10;99.90
24152;DHT22;12311;50.866;4.332;2023-07-13T01:07:40;16.10;99.90
24152;DHT22;12311;50.866;4.332;2023-07-13T01:10:07;16.10;99.90
24152;DHT22;12311;50.866;4.332;2023-07-13T01:12:33;16.00;99.90
24152;DHT22;12311;50.866;4.332;2023-07-13T01:15:00;16.00;99.90
24152;DHT22;12311;50.866;4.332;2023-07-13T01:17:27;16.00;99.90
24152;DHT22;12311;50.866;4.332;2023-07-13T01:19:53;15.90;99.90
24152;DHT22;12311;50.866;4.332;2023-07-13T01:22:19;15.90;99.90
24152;DHT22;12311;50.866;4.332;2023-07-13T01:24:47;15.90;99.90
24152;DHT22;12311;50.866;4.332;2023-07-13T01:27:15;15.90;99.90
24152;DHT22;12311;50.866;4.332;2023-07-13T01:29:44;15.90;99.90
24152;DHT22;12311;50.866;4.332;2023-07-13T01:32:16;15.90;99.90
24152;DHT22;12311;50.866;4.332;2023-07-13T01:34:48;15.80;99.90
24152;DHT22;12311;50.866;4.332;2023-07-13T01:37:14;15.80;99.90
24152;DHT22;12311;50.866;4.332;2023-07-13T01:39:39;15.80;99.90
24152;DHT22;12311;50.866;4.332;2023-07-13T01:42:05;15.80;99.90
24152;DHT22;12311;50.866;4.332;2023-07-13T01:44:31;15.70;99.90
24152;DHT22;12311;50.866;4.332;2023-07-13T01:46:57;15.70;99.90
24152;DHT22;12311;50.866;4.332;2023-07-13T01:49:23;15.70;99.90
24152;DHT22;12311;50.866;4.332;2023-07-13T01:51:48;15.70;99.90
24152;DHT22;12311;50.866;4.332;2023-07-13T01:54:14;15.60;99.90
24152;DHT22;12311;50.866;4.332;2023-07-13T01:56:39;15.70;99.90
24152;DHT22;12311;50.866;4.332;2023-07-13T01:59:07;15.60;99.90
24152;DHT22;12311;50.866;4.332;2023-07-13T02:01:33;15.60;99.90
24152;DHT22;12311;50.866;4.332;2023-07-13T02:03:59;15.50;99.90
24152;DHT22;12311;50.866;4.332;2023-07-13T02:06:25;15.50;99.90
24152;DHT22;12311;50.866;4.332;2023-07-13T02:08:50;15.40;99.90
24152;DHT22;12311;50.866;4.332;2023-07-13T02:11:16;15.40;99.90
24152;DHT22;12311;50.866;4.332;2023-07-13T02:13:42;15.40;99.90
24152;DHT22;12311;50.866;4.332;2023-07-13T02:16:08;15.40;99.90
24152;DHT22;12311;50.866;4.332;2023-07-13T02:18:34;15.40;99.90
24152;DHT22;12311;50.866;4.332;2023-07-13T02:20:59;15.50;99.90
24152;DHT22;12311;50.866;4.332;2023-07-13T02:23:25;15.40;99.90
24152;DHT22;12311;50.866;4.332;2023-07-13T02:25:55;15.50;99.90
24152;DHT22;12311;50.866;4.332;2023-07-13T02:28:21;15.50;99.90
24152;DHT22;12311;50.866;4.332;2023-07-13T02:30:47;15.50;99.90
24152;DHT22;12311;50.866;4.332;2023-07-13T02:33:13;15.50;99.90
24152;DHT22;12311;50.866;4.332;2023-07-13T02:35:38;15.50;99.90
24152;DHT22;12311;50.866;4.332;2023-07-13T02:38:04;15.40;99.90
24152;DHT22;12311;50.866;4.332;2023-07-13T02:40:30;15.30;99.90
24152;DHT22;12311;50.866;4.332;2023-07-13T02:42:59;15.20;99.90
24152;DHT22;12311;50.866;4.332;2023-07-13T02:45:25;15.20;99.90
24152;DHT22;12311;50.866;4.332;2023-07-13T02:47:51;15.20;99.90
24152;DHT22;12311;50.866;4.332;2023-07-13T02:50:16;15.20;99.90
24152;DHT22;12311;50.866;4.332;2023-07-13T02:52:42;15.20;99.90
24152;DHT22;12311;50.866;4.332;2023-07-13T02:55:08;15.20;99.90
24152;DHT22;12311;50.866;4.332;2023-07-13T02:57:34;15.10;99.90
24152;DHT22;12311;50.866;4.332;2023-07-13T03:00:00;15.10;99.90
24152;DHT22;12311;50.866;4.332;2023-07-13T03:02:26;15.10;99.90
24152;DHT22;12311;50.866;4.332;2023-07-13T03:04:55;15.10;99.90
24152;DHT22;12311;50.866;4.332;2023-07-13T03:07:20;15.10;99.90
24152;DHT22;12311;50.866;4.332;2023-07-13T03:09:46;15.10;99.90
24152;DHT22;12311;50.866;4.332;2023-07-13T03:12:12;15.10;99.90
24152;DHT22;12311;50.866;4.332;2023-07-13T03:14:37;15.10;99.90
24152;DHT22;12311;50.866;4.332;2023-07-13T03:17:03;15.10;99.90
24152;DHT22;12311;50.866;4.332;2023-07-13T03:19:29;15.10;99.90
24152;DHT22;12311;50.866;4.332;2023-07-13T03:21:55;15.00;99.90
24152;DHT22;12311;50.866;4.332;2023-07-13T03:24:20;15.10;99.90
24152;DHT22;12311;50.866;4.332;2023-07-13T03:26:48;15.10;99.90
24152;DHT22;12311;50.866;4.332;2023-07-13T03:29:14;15.10;99.90
24152;DHT22;12311;50.866;4.332;2023-07-13T03:31:40;15.10;99.90
24152;DHT22;12311;50.866;4.332;2023-07-13T03:34:06;15.00;99.90
24152;DHT22;12311;50.866;4.332;2023-07-13T03:36:32;14.90;99.90
24152;DHT22;12311;50.866;4.332;2023-07-13T03:39:00;14.90;99.90
24152;DHT22;12311;50.866;4.332;2023-07-13T03:41:26;14.90;99.90
24152;DHT22;12311;50.866;4.332;2023-07-13T03:43:52;15.00;99.90
24152;DHT22;12311;50.866;4.332;2023-07-13T03:46:19;15.10;99.90
24152;DHT22;12311;50.866;4.332;2023-07-13T03:48:46;15.10;99.90
24152;DHT22;12311;50.866;4.332;2023-07-13T03:51:14;15.20;99.90
24152;DHT22;12311;50.866;4.332;2023-07-13T03:53:45;15.20;99.90
24152;DHT22;12311;50.866;4.332;2023-07-13T03:56:11;15.20;99.90
24152;DHT22;12311;50.866;4.332;2023-07-13T03:58:39;15.30;99.90
24152;DHT22;12311;50.866;4.332;2023-07-13T04:01:08;15.40;99.90
24152;DHT22;12311;50.866;4.332;2023-07-13T04:03:34;15.40;99.90
24152;DHT22;12311;50.866;4.332;2023-07-13T04:06:01;15.40;99.90
24152;DHT22;12311;50.866;4.332;2023-07-13T04:08:32;15.40;99.90
24152;DHT22;12311;50.866;4.332;2023-07-13T04:10:58;15.50;99.90
24152;DHT22;12311;50.866;4.332;2023-07-13T04:13:24;15.60;99.90
24152;DHT22;12311;50.866;4.332;2023-07-13T04:15:51;15.70;99.90
24152;DHT22;12311;50.866;4.332;2023-07-13T04:18:16;15.60;99.90
24152;DHT22;12311;50.866;4.332;2023-07-13T04:20:42;15.50;99.90
24152;DHT22;12311;50.866;4.332;2023-07-13T04:23:08;15.50;99.90
24152;DHT22;12311;50.866;4.332;2023-07-13T04:25:34;15.50;99.90
24152;DHT22;12311;50.866;4.332;2023-07-13T04:28:00;15.50;99.90
24152;DHT22;12311;50.866;4.332;2023-07-13T04:30:25;15.60;99.90
24152;DHT22;12311;50.866;4.332;2023-07-13T04:32:52;15.60;99.90
24152;DHT22;12311;50.866;4.332;2023-07-13T04:35:19;15.50;99.90
24152;DHT22;12311;50.866;4.332;2023-07-13T04:37:49;15.50;99.90
24152;DHT22;12311;50.866;4.332;2023-07-13T04:40:16;15.40;99.90
24152;DHT22;12311;50.866;4.332;2023-07-13T04:42:42;15.40;99.90
24152;DHT22;12311;50.866;4.332;2023-07-13T04:45:08;15.30;99.90
24152;DHT22;12311;50.866;4.332;2023-07-13T04:47:34;15.50;99.90
24152;DHT22;12311;50.866;4.332;2023-07-13T04:50:00;15.50;99.90
24152;DHT22;12311;50.866;4.332;2023-07-13T04:52:25;15.60;99.90
24152;DHT22;12311;50.866;4.332;2023-07-13T04:54:51;15.50;99.90
24152;DHT22;12311;50.866;4.332;2023-07-13T04:57:17;15.60;99.90
24152;DHT22;12311;50.866;4.332;2023-07-13T04:59:42;15.60;99.90
24152;DHT22;12311;50.866;4.332;2023-07-13T05:02:08;15.60;99.90
24152;DHT22;12311;50.866;4.332;2023-07-13T05:04:34;15.70;99.90
24152;DHT22;12311;50.866;4.332;2023-07-13T05:07:00;15.70;99.90
24152;DHT22;12311;50.866;4.332;2023-07-13T05:09:25;15.60;99.90
24152;DHT22;12311;50.866;4.332;2023-07-13T05:11:52;15.80;99.90
24152;DHT22;12311;50.866;4.332;2023-07-13T05:14:17;15.80;99.90
24152;DHT22;12311;50.866;4.332;2023-07-13T05:16:43;15.90;99.90
24152;DHT22;12311;50.866;4.332;2023-07-13T05:19:09;16.00;99.90
24152;DHT22;12311;50.866;4.332;2023-07-13T05:21:35;16.00;99.90
24152;DHT22;12311;50.866;4.332;2023-07-13T05:24:00;16.00;99.90
24152;DHT22;12311;50.866;4.332;2023-07-13T05:26:26;16.00;99.90
24152;DHT22;12311;50.866;4.332;2023-07-13T05:28:52;16.00;99.90
24152;DHT22;12311;50.866;4.332;2023-07-13T05:31:18;16.00;99.90
24152;DHT22;12311;50.866;4.332;2023-07-13T05:33:44;16.10;99.90
24152;DHT22;12311;50.866;4.332;2023-07-13T05:36:09;16.10;99.90
24152;DHT22;12311;50.866;4.332;2023-07-13T05:38:35;16.10;99.90
24152;DHT22;12311;50.866;4.332;2023-07-13T05:41:01;16.10;99.90
24152;DHT22;12311;50.866;4.332;2023-07-13T05:43:26;16.20;99.90
24152;DHT22;12311;50.866;4.332;2023-07-13T05:45:56;16.30;99.90
24152;DHT22;12311;50.866;4.332;2023-07-13T05:48:22;16.30;99.90
24152;DHT22;12311;50.866;4.332;2023-07-13T05:50:48;16.50;99.90
24152;DHT22;12311;50.866;4.332;2023-07-13T05:53:15;16.40;99.90
24152;DHT22;12311;50.866;4.332;2023-07-13T05:55:44;16.50;99.90
24152;DHT22;12311;50.866;4.332;2023-07-13T05:58:13;16.50;99.90
24152;DHT22;12311;50.866;4.332;2023-07-13T06:00:39;16.60;99.90
24152;DHT22;12311;50.866;4.332;2023-07-13T06:03:06;16.70;99.90
24152;DHT22;12311;50.866;4.332;2023-07-13T06:05:33;16.80;99.90
24152;DHT22;12311;50.866;4.332;2023-07-13T06:07:59;16.90;99.90
24152;DHT22;12311;50.866;4.332;2023-07-13T06:10:25;16.90;99.90
24152;DHT22;12311;50.866;4.332;2023-07-13T06:12:51;16.80;99.90
24152;DHT22;12311;50.866;4.332;2023-07-13T06:15:16;16.90;99.90
24152;DHT22;12311;50.866;4.332;2023-07-13T06:17:42;16.90;99.90
24152;DHT22;12311;50.866;4.332;2023-07-13T06:20:09;16.90;99.90
24152;DHT22;12311;50.866;4.332;2023-07-13T06:22:35;16.90;99.90
24152;DHT22;12311;50.866;4.332;2023-07-13T06:25:01;17.10;99.90
24152;DHT22;12311;50.866;4.332;2023-07-13T06:27:26;17.20;99.90
24152;DHT22;12311;50.866;4.332;2023-07-13T06:29:52;17.20;99.90
24152;DHT22;12311;50.866;4.332;2023-07-13T06:32:18;17.00;99.90
24152;DHT22;12311;50.866;4.332;2023-07-13T06:34:44;17.10;99.90
24152;DHT22;12311;50.866;4.332;2023-07-13T06:37:09;17.30;99.90
24152;DHT22;12311;50.866;4.332;2023-07-13T06:39:35;17.40;99.90
24152;DHT22;12311;50.866;4.332;2023-07-13T06:42:01;17.70;99.90
24152;DHT22;12311;50.866;4.332;2023-07-13T06:44:27;17.70;99.90
24152;DHT22;12311;50.866;4.332;2023-07-13T06:46:53;17.80;99.90
24152;DHT22;12311;50.866;4.332;2023-07-13T06:49:19;17.70;99.90
24152;DHT22;12311;50.866;4.332;2023-07-13T06:51:45;17.70;99.90
24152;DHT22;12311;50.866;4.332;2023-07-13T06:54:11;17.70;99.90
24152;DHT22;12311;50.866;4.332;2023-07-13T06:56:37;17.60;99.90
24152;DHT22;12311;50.866;4.332;2023-07-13T06:59:02;17.80;99.90
24152;DHT22;12311;50.866;4.332;2023-07-13T07:01:28;17.90;99.90
24152;DHT22;12311;50.866;4.332;2023-07-13T07:03:53;17.70;99.90
24152;DHT22;12311;50.866;4.332;2023-07-13T07:06:21;17.80;99.90
24152;DHT22;12311;50.866;4.332;2023-07-13T07:08:50;18.10;99.90
24152;DHT22;12311;50.866;4.332;2023-07-13T07:11:19;18.00;99.90
24152;DHT22;12311;50.866;4.332;2023-07-13T07:13:45;17.90;99.90
24152;DHT22;12311;50.866;4.332;2023-07-13T07:16:11;18.20;99.90
24152;DHT22;12311;50.866;4.332;2023-07-13T07:18:36;18.30;99.90
24152;DHT22;12311;50.866;4.332;2023-07-13T07:21:02;18.50;99.90
24152;DHT22;12311;50.866;4.332;2023-07-13T07:23:28;18.40;99.90
24152;DHT22;12311;50.866;4.332;2023-07-13T07:25:54;18.40;99.90
24152;DHT22;12311;50.866;4.332;2023-07-13T07:28:20;18.30;99.90
24152;DHT22;12311;50.866;4.332;2023-07-13T07:30:46;18.20;99.90
24152;DHT22;12311;50.866;4.332;2023-07-13T07:33:12;18.20;99.90
24152;DHT22;12311;50.866;4.332;2023-07-13T07:35:38;18.20;99.90
24152;DHT22;12311;50.866;4.332;2023-07-13T07:38:04;18.30;99.90
24152;DHT22;12311;50.866;4.332;2023-07-13T07:40:29;18.40;99.90
24152;DHT22;12311;50.866;4.332;2023-07-13T07:42:56;18.60;99.90
24152;DHT22;12311;50.866;4.332;2023-07-13T07:45:22;18.40;99.90
24152;DHT22;12311;50.866;4.332;2023-07-13T07:47:49;18.40;99.90
24152;DHT22;12311;50.866;4.332;2023-07-13T07:50:15;18.50;99.90
24152;DHT22;12311;50.866;4.332;2023-07-13T07:52:40;18.70;99.90
24152;DHT22;12311;50.866;4.332;2023-07-13T07:55:07;18.50;99.90
24152;DHT22;12311;50.866;4.332;2023-07-13T07:57:33;18.70;99.90
24152;DHT22;12311;50.866;4.332;2023-07-13T07:59:59;18.70;99.90
24152;DHT22;12311;50.866;4.332;2023-07-13T08:02:26;18.90;99.90
24152;DHT22;12311;50.866;4.332;2023-07-13T08:04:52;19.10;99.90
24152;DHT22;12311;50.866;4.332;2023-07-13T08:07:18;19.00;99.90
24152;DHT22;12311;50.866;4.332;2023-07-13T08:09:44;19.30;99.90
24152;DHT22;12311;50.866;4.332;2023-07-13T08:12:10;19.30;99.90
24152;DHT22;12311;50.866;4.332;2023-07-13T08:14:35;19.40;99.90
24152;DHT22;12311;50.866;4.332;2023-07-13T08:17:01;19.60;99.90
24152;DHT22;12311;50.866;4.332;2023-07-13T08:19:27;19.60;99.90
24152;DHT22;12311;50.866;4.332;2023-07-13T08:21:53;19.60;99.90
24152;DHT22;12311;50.866;4.332;2023-07-13T08:24:21;19.60;99.90
24152;DHT22;12311;50.866;4.332;2023-07-13T08:26:47;19.60;99.90
24152;DHT22;12311;50.866;4.332;2023-07-13T08:29:13;19.70;99.90
24152;DHT22;12311;50.866;4.332;2023-07-13T08:31:39;19.70;99.90
24152;DHT22;12311;50.866;4.332;2023-07-13T08:34:04;19.90;99.90
24152;DHT22;12311;50.866;4.332;2023-07-13T08:36:30;19.90;99.90
24152;DHT22;12311;50.866;4.332;2023-07-13T08:38:56;20.10;99.90
24152;DHT22;12311;50.866;4.332;2023-07-13T08:41:22;19.80;99.90
24152;DHT22;12311;50.866;4.332;2023-07-13T08:43:54;20.00;99.90
24152;DHT22;12311;50.866;4.332;2023-07-13T08:46:26;20.30;99.90
24152;DHT22;12311;50.866;4.332;2023-07-13T08:48:57;20.10;99.90
24152;DHT22;12311;50.866;4.332;2023-07-13T08:54:00;19.70;99.90
24152;DHT22;12311;50.866;4.332;2023-07-13T08:56:28;19.80;99.90
24152;DHT22;12311;50.866;4.332;2023-07-13T08:59:01;19.80;99.90
24152;DHT22;12311;50.866;4.332;2023-07-13T09:04:15;20.00;99.90
24152;DHT22;12311;50.866;4.332;2023-07-13T09:09:36;19.90;99.90
24152;DHT22;12311;50.866;4.332;2023-07-13T09:14:47;20.00;99.90
24152;DHT22;12311;50.866;4.332;2023-07-13T09:17:45;20.20;99.90
24152;DHT22;12311;50.866;4.332;2023-07-13T09:22:46;20.50;99.90
24152;DHT22;12311;50.866;4.332;2023-07-13T09:25:30;20.60;99.90
24152;DHT22;12311;50.866;4.332;2023-07-13T09:28:08;20.80;99.90
24152;DHT22;12311;50.866;4.332;2023-07-13T09:31:09;20.80;99.90
24152;DHT22;12311;50.866;4.332;2023-07-13T09:33:38;20.80;99.90
24152;DHT22;12311;50.866;4.332;2023-07-13T09:36:26;20.90;99.90
24152;DHT22;12311;50.866;4.332;2023-07-13T09:42:21;21.20;99.90
24152;DHT22;12311;50.866;4.332;2023-07-13T09:44:43;21.00;99.90
24152;DHT22;12311;50.866;4.332;2023-07-13T09:47:15;21.20;99.90
24152;DHT22;12311;50.866;4.332;2023-07-13T09:49:42;21.40;99.90
24152;DHT22;12311;50.866;4.332;2023-07-13T09:52:12;21.40;99.90
24152;DHT22;12311;50.866;4.332;2023-07-13T09:54:41;21.40;99.90
24152;DHT22;12311;50.866;4.332;2023-07-13T09:57:14;21.60;99.90
24152;DHT22;12311;50.866;4.332;2023-07-13T09:59:44;21.80;99.90
24152;DHT22;12311;50.866;4.332;2023-07-13T10:02:32;21.90;99.90
24152;DHT22;12311;50.866;4.332;2023-07-13T10:05:10;22.10;99.90
24152;DHT22;12311;50.866;4.332;2023-07-13T10:07:43;22.40;99.90
24152;DHT22;12311;50.866;4.332;2023-07-13T10:10:18;22.50;99.90
24152;DHT22;12311;50.866;4.332;2023-07-13T10:12:45;22.80;99.90
24152;DHT22;12311;50.866;4.332;2023-07-13T10:15:30;23.10;99.90
24152;DHT22;12311;50.866;4.332;2023-07-13T10:17:56;23.10;99.90
24152;DHT22;12311;50.866;4.332;2023-07-13T10:20:24;23.50;99.90
24152;DHT22;12311;50.866;4.332;2023-07-13T10:23:02;23.50;99.90
24152;DHT22;12311;50.866;4.332;2023-07-13T10:25:33;23.30;99.90
24152;DHT22;12311;50.866;4.332;2023-07-13T10:30:39;23.10;99.90
24152;DHT22;12311;50.866;4.332;2023-07-13T10:33:10;23.10;99.90
24152;DHT22;12311;50.866;4.332;2023-07-13T10:35:39;22.80;99.90
24152;DHT22;12311;50.866;4.332;2023-07-13T10:38:11;23.00;99.90
24152;DHT22;12311;50.866;4.332;2023-07-13T10:43:51;22.50;99.90
24152;DHT22;12311;50.866;4.332;2023-07-13T10:46:18;22.10;99.90
24152;DHT22;12311;50.866;4.332;2023-07-13T10:48:48;21.10;99.90
24152;DHT22;12311;50.866;4.332;2023-07-13T10:51:17;20.30;99.90
24152;DHT22;12311;50.866;4.332;2023-07-13T10:53:43;19.80;99.90
24152;DHT22;12311;50.866;4.332;2023-07-13T10:56:30;19.80;99.90
24152;DHT22;12311;50.866;4.332;2023-07-13T11:04:41;21.30;99.90
24152;DHT22;12311;50.866;4.332;2023-07-13T11:08:13;21.50;99.90
24152;DHT22;12311;50.866;4.332;2023-07-13T11:16:57;22.30;99.90
24152;DHT22;12311;50.866;4.332;2023-07-13T11:21:29;22.60;99.90
24152;DHT22;12311;50.866;4.332;2023-07-13T11:24:16;22.30;99.90
24152;DHT22;12311;50.866;4.332;2023-07-13T11:26:52;22.00;99.90
24152;DHT22;12311;50.866;4.332;2023-07-13T11:31:55;22.20;99.90
24152;DHT22;12311;50.866;4.332;2023-07-13T11:34:30;22.20;99.90
24152;DHT22;12311;50.866;4.332;2023-07-13T11:36:58;22.00;99.90
24152;DHT22;12311;50.866;4.332;2023-07-13T11:39:31;21.90;99.90
24152;DHT22;12311;50.866;4.332;2023-07-13T11:42:00;21.60;99.90
24152;DHT22;12311;50.866;4.332;2023-07-13T11:44:28;21.40;99.90
24152;DHT22;12311;50.866;4.332;2023-07-13T11:46:57;21.10;99.90
24152;DHT22;12311;50.866;4.332;2023-07-13T11:49:30;20.70;99.90
24152;DHT22;12311;50.866;4.332;2023-07-13T11:51:57;20.40;99.90
24152;DHT22;12311;50.866;4.332;2023-07-13T11:54:30;20.30;99.90
24152;DHT22;12311;50.866;4.332;2023-07-13T11:57:02;20.10;99.90
24152;DHT22;12311;50.866;4.332;2023-07-13T11:59:32;20.00;99.90
24152;DHT22;12311;50.866;4.332;2023-07-13T12:01:59;20.00;99.90
24152;DHT22;12311;50.866;4.332;2023-07-13T12:04:30;20.30;99.90
24152;DHT22;12311;50.866;4.332;2023-07-13T12:07:14;20.60;99.90
24152;DHT22;12311;50.866;4.332;2023-07-13T12:09:40;20.90;99.90
24152;DHT22;12311;50.866;4.332;2023-07-13T12:12:28;21.20;99.90
24152;DHT22;12311;50.866;4.332;2023-07-13T12:14:54;21.40;99.90
24152;DHT22;12311;50.866;4.332;2023-07-13T12:17:22;21.60;99.90
24152;DHT22;12311;50.866;4.332;2023-07-13T12:19:49;21.90;99.90
24152;DHT22;12311;50.866;4.332;2023-07-13T12:22:17;22.10;99.90
24152;DHT22;12311;50.866;4.332;2023-07-13T12:24:44;21.50;99.90
24152;DHT22;12311;50.866;4.332;2023-07-13T12:27:22;20.60;99.90
24152;DHT22;12311;50.866;4.332;2023-07-13T12:29:59;19.40;99.90
24152;DHT22;12311;50.866;4.332;2023-07-13T12:32:26;18.10;99.90
24152;DHT22;12311;50.866;4.332;2023-07-13T12:34:54;17.70;99.90
24152;DHT22;12311;50.866;4.332;2023-07-13T12:37:21;17.30;99.90
24152;DHT22;12311;50.866;4.332;2023-07-13T12:39:48;17.20;99.90
24152;DHT22;12311;50.866;4.332;2023-07-13T12:42:25;17.10;99.90
24152;DHT22;12311;50.866;4.332;2023-07-13T12:45:20;17.10;99.90
24152;DHT22;12311;50.866;4.332;2023-07-13T12:47:53;17.10;99.90
24152;DHT22;12311;50.866;4.332;2023-07-13T12:50:22;17.10;99.90
24152;DHT22;12311;50.866;4.332;2023-07-13T12:52:53;17.10;99.90
24152;DHT22;12311;50.866;4.332;2023-07-13T12:55:20;17.20;99.90
24152;DHT22;12311;50.866;4.332;2023-07-13T12:57:52;17.30;99.90
24152;DHT22;12311;50.866;4.332;2023-07-13T13:00:27;17.30;99.90
24152;DHT22;12311;50.866;4.332;2023-07-13T13:02:56;17.40;99.90
24152;DHT22;12311;50.866;4.332;2023-07-13T13:05:22;17.50;99.90
24152;DHT22;12311;50.866;4.332;2023-07-13T13:07:51;17.60;99.90
24152;DHT22;12311;50.866;4.332;2023-07-13T13:10:16;17.90;99.90
24152;DHT22;12311;50.866;4.332;2023-07-13T13:12:42;18.10;99.90
24152;DHT22;12311;50.866;4.332;2023-07-13T13:15:09;18.40;99.90
24152;DHT22;12311;50.866;4.332;2023-07-13T13:17:35;18.50;99.90
24152;DHT22;12311;50.866;4.332;2023-07-13T13:20:01;18.60;99.90
24152;DHT22;12311;50.866;4.332;2023-07-13T13:22:27;18.80;99.90
24152;DHT22;12311;50.866;4.332;2023-07-13T13:24:52;18.70;99.90
24152;DHT22;12311;50.866;4.332;2023-07-13T13:27:21;18.90;99.90
24152;DHT22;12311;50.866;4.332;2023-07-13T13:29:49;19.20;99.90
24152;DHT22;12311;50.866;4.332;2023-07-13T13:32:17;19.60;99.90
24152;DHT22;12311;50.866;4.332;2023-07-13T13:34:44;20.20;99.90
24152;DHT22;12311;50.866;4.332;2023-07-13T13:37:20;21.20;99.90
24152;DHT22;12311;50.866;4.332;2023-07-13T13:39:47;22.30;99.90
24152;DHT22;12311;50.866;4.332;2023-07-13T13:42:14;24.10;99.90
24152;DHT22;12311;50.866;4.332;2023-07-13T13:44:39;25.70;99.90
24152;DHT22;12311;50.866;4.332;2023-07-13T13:47:31;25.50;99.90
24152;DHT22;12311;50.866;4.332;2023-07-13T13:49:58;25.00;99.90
24152;DHT22;12311;50.866;4.332;2023-07-13T13:52:25;24.90;99.90
24152;DHT22;12311;50.866;4.332;2023-07-13T13:54:51;24.50;99.90
24152;DHT22;12311;50.866;4.332;2023-07-13T13:57:22;23.60;99.90
24152;DHT22;12311;50.866;4.332;2023-07-13T13:59:49;23.50;99.90
24152;DHT22;12311;50.866;4.332;2023-07-13T14:02:27;23.40;99.90
24152;DHT22;12311;50.866;4.332;2023-07-13T14:04:56;23.20;99.90
24152;DHT22;12311;50.866;4.332;2023-07-13T14:07:22;23.50;99.90
24152;DHT22;12311;50.866;4.332;2023-07-13T14:09:48;23.70;99.90
24152;DHT22;12311;50.866;4.332;2023-07-13T14:12:14;24.40;99.90
24152;DHT22;12311;50.866;4.332;2023-07-13T14:14:39;24.70;99.90
24152;DHT22;12311;50.866;4.332;2023-07-13T14:17:23;24.70;99.90
24152;DHT22;12311;50.866;4.332;2023-07-13T14:19:52;25.20;99.90
24152;DHT22;12311;50.866;4.332;2023-07-13T14:22:24;24.80;99.90
24152;DHT22;12311;50.866;4.332;2023-07-13T14:24:52;25.80;99.90
24152;DHT22;12311;50.866;4.332;2023-07-13T14:27:18;25.50;99.90
24152;DHT22;12311;50.866;4.332;2023-07-13T14:29:44;24.40;99.90
24152;DHT22;12311;50.866;4.332;2023-07-13T14:32:11;23.70;99.90
24152;DHT22;12311;50.866;4.332;2023-07-13T14:34:37;23.10;99.90
24152;DHT22;12311;50.866;4.332;2023-07-13T14:37:03;22.90;99.90
24152;DHT22;12311;50.866;4.332;2023-07-13T14:39:30;22.50;99.90
24152;DHT22;12311;50.866;4.332;2023-07-13T14:41:57;22.60;99.90
24152;DHT22;12311;50.866;4.332;2023-07-13T14:44:30;22.70;99.90
24152;DHT22;12311;50.866;4.332;2023-07-13T14:46:58;22.70;99.90
24152;DHT22;12311;50.866;4.332;2023-07-13T14:49:36;23.20;99.90
24152;DHT22;12311;50.866;4.332;2023-07-13T14:52:16;23.70;99.90
24152;DHT22;12311;50.866;4.332;2023-07-13T14:54:43;24.80;99.90
24152;DHT22;12311;50.866;4.332;2023-07-13T14:57:18;25.80;99.90
24152;DHT22;12311;50.866;4.332;2023-07-13T14:59:44;26.30;99.90
24152;DHT22;12311;50.866;4.332;2023-07-13T15:02:16;26.10;99.90
24152;DHT22;12311;50.866;4.332;2023-07-13T15:04:43;26.10;99.90
24152;DHT22;12311;50.866;4.332;2023-07-13T15:07:10;26.80;99.90
24152;DHT22;12311;50.866;4.332;2023-07-13T15:09:37;26.50;99.90
24152;DHT22;12311;50.866;4.332;2023-07-13T15:12:03;26.50;99.90
24152;DHT22;12311;50.866;4.332;2023-07-13T15:14:30;26.50;99.90
24152;DHT22;12311;50.866;4.332;2023-07-13T15:16:56;26.00;99.90
24152;DHT22;12311;50.866;4.332;2023-07-13T15:19:23;25.20;99.90
24152;DHT22;12311;50.866;4.332;2023-07-13T15:21:49;24.80;99.90
24152;DHT22;12311;50.866;4.332;2023-07-13T15:24:15;25.00;99.90
24152;DHT22;12311;50.866;4.332;2023-07-13T15:26:42;24.60;99.90
24152;DHT22;12311;50.866;4.332;2023-07-13T15:29:11;24.00;99.90
24152;DHT22;12311;50.866;4.332;2023-07-13T15:31:37;23.90;99.90
24152;DHT22;12311;50.866;4.332;2023-07-13T15:34:16;24.00;99.90
24152;DHT22;12311;50.866;4.332;2023-07-13T15:36:42;24.00;99.90
24152;DHT22;12311;50.866;4.332;2023-07-13T15:39:14;23.70;99.90
24152;DHT22;12311;50.866;4.332;2023-07-13T15:41:41;23.80;99.90
24152;DHT22;12311;50.866;4.332;2023-07-13T15:44:28;24.80;99.90
24152;DHT22;12311;50.866;4.332;2023-07-13T15:46:54;25.30;99.90
24152;DHT22;12311;50.866;4.332;2023-07-13T15:49:22;26.50;99.90
24152;DHT22;12311;50.866;4.332;2023-07-13T15:51:48;26.90;99.90
24152;DHT22;12311;50.866;4.332;2023-07-13T15:54:17;27.30;99.90
24152;DHT22;12311;50.866;4.332;2023-07-13T15:56:53;27.70;99.90
24152;DHT22;12311;50.866;4.332;2023-07-13T15:59:19;27.80;99.40
24152;DHT22;12311;50.866;4.332;2023-07-13T16:01:45;28.00;98.50
24152;DHT22;12311;50.866;4.332;2023-07-13T16:04:12;28.00;97.00
24152;DHT22;12311;50.866;4.332;2023-07-13T16:06:40;27.80;98.00
24152;DHT22;12311;50.866;4.332;2023-07-13T16:09:07;28.20;96.90
24152;DHT22;12311;50.866;4.332;2023-07-13T16:11:38;29.60;95.50
24152;DHT22;12311;50.866;4.332;2023-07-13T16:14:04;28.90;93.60
24152;DHT22;12311;50.866;4.332;2023-07-13T16:16:33;28.50;93.70
24152;DHT22;12311;50.866;4.332;2023-07-13T16:19:03;27.70;93.80